Arthur, West Virginia
Current Conditions -  °F | °C
As of 11:15 AM on Monday 22 Dec 2014 (Local Time) from KW99 Reporting Station
Haze Haze  
Wind Chill: 31°   Ceiling: 3000
Heat Index: 31°   Visibility: 5mi
Dew Point: 25°   Wind: 0mph
Humidity: 79%   Direction: NA
Pressure: 30.24"   Gusts: NA
Location:  38.9337°N, 79.1435°W
Report Text: KW99 221615Z AUTO 00000KT 5SM HZ OVC030 00/M04 A3024 RMK AO2 T10051037
Loading
Personal Weather Stations






























Interactive Weather Map New forecast layout! Learn more

10-Day Weather Forecast

Advertisements
Track Severe Weather on mobile